sensor_id;sensor_type;location;lat;lon;timestamp;pressure;altitude;pressure_sealevel;temperature;humidity
51460;BME280;37534;39.772;2.718;2023-05-22T00:01:33;100923.84;;;17.29;100.00
51460;BME280;37534;39.772;2.718;2023-05-22T00:04:01;100915.41;;;17.24;100.00
51460;BME280;37534;39.772;2.718;2023-05-22T00:06:27;100923.84;;;17.29;100.00
51460;BME280;37534;39.772;2.718;2023-05-22T00:08:54;100920.47;;;17.27;100.00
51460;BME280;37534;39.772;2.718;2023-05-22T00:11:19;100923.63;;;17.34;100.00
51460;BME280;37534;39.772;2.718;2023-05-22T00:13:45;100921.06;;;17.50;100.00
51460;BME280;37534;39.772;2.718;2023-05-22T00:16:10;100913.25;;;17.50;100.00
51460;BME280;37534;39.772;2.718;2023-05-22T00:18:36;100918.53;;;17.48;100.00
51460;BME280;37534;39.772;2.718;2023-05-22T00:21:01;100913.13;;;17.36;100.00
51460;BME280;37534;39.772;2.718;2023-05-22T00:23:27;100909.09;;;17.28;100.00
51460;BME280;37534;39.772;2.718;2023-05-22T00:25:54;100910.88;;;17.28;100.00
51460;BME280;37534;39.772;2.718;2023-05-22T00:28:19;100916.50;;;17.38;100.00
51460;BME280;37534;39.772;2.718;2023-05-22T00:30:45;100917.41;;;17.37;100.00
51460;BME280;37534;39.772;2.718;2023-05-22T00:33:10;100914.78;;;17.37;100.00
51460;BME280;37534;39.772;2.718;2023-05-22T00:35:36;100916.72;;;17.33;100.00
51460;BME280;37534;39.772;2.718;2023-05-22T00:38:02;100904.00;;;17.27;100.00
51460;BME280;37534;39.772;2.718;2023-05-22T00:40:29;100923.69;;;17.33;100.00
51460;BME280;37534;39.772;2.718;2023-05-22T00:42:55;100915.25;;;17.27;100.00
51460;BME280;37534;39.772;2.718;2023-05-22T00:45:20;100915.25;;;17.27;100.00
51460;BME280;37534;39.772;2.718;2023-05-22T00:47:47;100906.88;;;17.38;100.00
51460;BME280;37534;39.772;2.718;2023-05-22T00:50:13;100913.94;;;17.54;100.00
51460;BME280;37534;39.772;2.718;2023-05-22T00:52:41;100897.13;;;17.42;100.00
51460;BME280;37534;39.772;2.718;2023-05-22T00:55:09;100909.56;;;17.37;100.00
51460;BME280;37534;39.772;2.718;2023-05-22T00:57:36;100908.88;;;17.33;100.00
51460;BME280;37534;39.772;2.718;2023-05-22T01:00:04;100907.22;;;17.32;100.00
51460;BME280;37534;39.772;2.718;2023-05-22T01:02:30;100896.94;;;17.29;100.00
51460;BME280;37534;39.772;2.718;2023-05-22T01:04:57;100906.13;;;17.36;100.00
51460;BME280;37534;39.772;2.718;2023-05-22T01:07:23;100898.53;;;17.32;100.00
51460;BME280;37534;39.772;2.718;2023-05-22T01:09:49;100892.56;;;17.29;100.00
51460;BME280;37534;39.772;2.718;2023-05-22T01:12:26;100882.44;;;17.23;100.00
51460;BME280;37534;39.772;2.718;2023-05-22T01:18:06;100887.34;;;17.29;100.00
51460;BME280;37534;39.772;2.718;2023-05-22T01:20:43;100885.63;;;17.28;100.00
51460;BME280;37534;39.772;2.718;2023-05-22T01:33:01;100875.13;;;17.30;100.00
51460;BME280;37534;39.772;2.718;2023-05-22T01:35:28;100859.41;;;17.32;100.00
51460;BME280;37534;39.772;2.718;2023-05-22T01:37:55;100865.31;;;17.35;100.00
51460;BME280;37534;39.772;2.718;2023-05-22T01:40:22;100855.91;;;17.33;100.00
51460;BME280;37534;39.772;2.718;2023-05-22T01:42:50;100862.44;;;17.24;100.00
51460;BME280;37534;39.772;2.718;2023-05-22T01:45:16;100860.22;;;17.16;100.00
51460;BME280;37534;39.772;2.718;2023-05-22T01:47:42;100858.53;;;17.15;100.00
51460;BME280;37534;39.772;2.718;2023-05-22T01:50:08;100866.50;;;17.12;100.00
51460;BME280;37534;39.772;2.718;2023-05-22T01:53:02;100868.34;;;17.10;100.00
51460;BME280;37534;39.772;2.718;2023-05-22T01:56:00;100861.53;;;17.07;100.00
51460;BME280;37534;39.772;2.718;2023-05-22T02:01:18;100864.06;;;17.09;100.00
51460;BME280;37534;39.772;2.718;2023-05-22T02:03:45;100857.31;;;17.05;100.00
51460;BME280;37534;39.772;2.718;2023-05-22T02:06:12;100858.06;;;17.07;100.00
51460;BME280;37534;39.772;2.718;2023-05-22T02:08:40;100859.28;;;17.00;100.00
51460;BME280;37534;39.772;2.718;2023-05-22T02:11:09;100861.13;;;16.98;100.00
51460;BME280;37534;39.772;2.718;2023-05-22T02:13:35;100864.00;;;16.93;100.00
51460;BME280;37534;39.772;2.718;2023-05-22T02:16:02;100872.25;;;17.01;100.00
51460;BME280;37534;39.772;2.718;2023-05-22T02:18:28;100869.78;;;16.98;100.00
51460;BME280;37534;39.772;2.718;2023-05-22T02:20:56;100873.56;;;16.92;100.00
51460;BME280;37534;39.772;2.718;2023-05-22T02:23:21;100869.97;;;16.95;100.00
51460;BME280;37534;39.772;2.718;2023-05-22T02:25:47;100879.47;;;16.96;100.00
51460;BME280;37534;39.772;2.718;2023-05-22T02:28:12;100865.91;;;16.89;100.00
51460;BME280;37534;39.772;2.718;2023-05-22T02:30:38;100872.28;;;16.82;100.00
51460;BME280;37534;39.772;2.718;2023-05-22T02:33:03;100877.09;;;16.91;100.00
51460;BME280;37534;39.772;2.718;2023-05-22T02:35:33;100880.31;;;16.97;100.00
51460;BME280;37534;39.772;2.718;2023-05-22T02:37:59;100870.50;;;16.84;100.00
51460;BME280;37534;39.772;2.718;2023-05-22T02:40:24;100869.28;;;16.91;100.00
51460;BME280;37534;39.772;2.718;2023-05-22T02:42:50;100864.22;;;16.88;100.00
51460;BME280;37534;39.772;2.718;2023-05-22T02:45:16;100874.41;;;16.93;100.00
51460;BME280;37534;39.772;2.718;2023-05-22T02:47:41;100868.47;;;16.72;100.00
51460;BME280;37534;39.772;2.718;2023-05-22T02:50:07;100864.63;;;16.62;100.00
51460;BME280;37534;39.772;2.718;2023-05-22T02:52:33;100867.38;;;16.59;100.00
51460;BME280;37534;39.772;2.718;2023-05-22T02:54:59;100861.53;;;16.53;100.00
51460;BME280;37534;39.772;2.718;2023-05-22T02:57:25;100853.59;;;16.57;100.00
51460;BME280;37534;39.772;2.718;2023-05-22T02:59:51;100842.53;;;16.51;100.00
51460;BME280;37534;39.772;2.718;2023-05-22T03:02:18;100847.75;;;16.51;100.00
51460;BME280;37534;39.772;2.718;2023-05-22T03:04:44;100820.63;;;16.38;100.00
51460;BME280;37534;39.772;2.718;2023-05-22T03:07:09;100824.91;;;16.39;100.00
51460;BME280;37534;39.772;2.718;2023-05-22T03:09:36;100811.88;;;16.39;100.00
51460;BME280;37534;39.772;2.718;2023-05-22T03:12:02;100800.03;;;16.33;100.00
51460;BME280;37534;39.772;2.718;2023-05-22T03:14:29;100787.22;;;16.29;100.00
51460;BME280;37534;39.772;2.718;2023-05-22T03:16:55;100782.94;;;16.28;100.00
51460;BME280;37534;39.772;2.718;2023-05-22T03:19:21;100781.66;;;16.37;100.00
51460;BME280;37534;39.772;2.718;2023-05-22T03:21:47;100782.97;;;16.45;100.00
51460;BME280;37534;39.772;2.718;2023-05-22T03:24:14;100788.94;;;16.47;100.00
51460;BME280;37534;39.772;2.718;2023-05-22T03:26:40;100778.06;;;16.57;100.00
51460;BME280;37534;39.772;2.718;2023-05-22T03:29:06;100776.97;;;16.61;100.00
51460;BME280;37534;39.772;2.718;2023-05-22T03:31:32;100770.38;;;16.71;100.00
51460;BME280;37534;39.772;2.718;2023-05-22T03:33:58;100763.94;;;16.61;100.00
51460;BME280;37534;39.772;2.718;2023-05-22T03:36:24;100768.38;;;16.76;100.00
51460;BME280;37534;39.772;2.718;2023-05-22T03:38:50;100761.19;;;16.81;100.00
51460;BME280;37534;39.772;2.718;2023-05-22T03:41:16;100768.06;;;16.82;100.00
51460;BME280;37534;39.772;2.718;2023-05-22T03:43:42;100769.66;;;16.86;100.00
51460;BME280;37534;39.772;2.718;2023-05-22T03:46:08;100764.59;;;16.83;100.00
51460;BME280;37534;39.772;2.718;2023-05-22T03:48:35;100758.28;;;16.87;100.00
51460;BME280;37534;39.772;2.718;2023-05-22T03:51:00;100773.16;;;16.85;100.00
51460;BME280;37534;39.772;2.718;2023-05-22T03:53:26;100763.31;;;16.73;100.00
51460;BME280;37534;39.772;2.718;2023-05-22T03:55:51;100770.91;;;16.78;100.00
51460;BME280;37534;39.772;2.718;2023-05-22T03:58:17;100775.31;;;16.77;100.00
51460;BME280;37534;39.772;2.718;2023-05-22T04:00:43;100783.19;;;16.76;100.00
51460;BME280;37534;39.772;2.718;2023-05-22T04:03:10;100782.94;;;16.63;100.00
51460;BME280;37534;39.772;2.718;2023-05-22T04:05:40;100779.06;;;16.54;100.00
51460;BME280;37534;39.772;2.718;2023-05-22T04:08:06;100789.06;;;16.44;100.00
51460;BME280;37534;39.772;2.718;2023-05-22T04:10:31;100788.69;;;16.34;100.00
51460;BME280;37534;39.772;2.718;2023-05-22T04:12:58;100798.56;;;16.28;100.00
51460;BME280;37534;39.772;2.718;2023-05-22T04:15:23;100796.31;;;16.20;100.00
51460;BME280;37534;39.772;2.718;2023-05-22T04:17:49;100807.59;;;16.21;100.00
51460;BME280;37534;39.772;2.718;2023-05-22T04:20:16;100800.41;;;16.26;100.00
51460;BME280;37534;39.772;2.718;2023-05-22T04:22:42;100809.81;;;16.28;100.00
51460;BME280;37534;39.772;2.718;2023-05-22T04:25:10;100809.88;;;16.27;100.00
51460;BME280;37534;39.772;2.718;2023-05-22T04:27:35;100803.47;;;16.34;100.00
51460;BME280;37534;39.772;2.718;2023-05-22T04:30:02;100797.56;;;16.30;100.00
51460;BME280;37534;39.772;2.718;2023-05-22T04:32:28;100804.75;;;16.25;100.00
51460;BME280;37534;39.772;2.718;2023-05-22T04:34:54;100815.03;;;16.28;100.00
51460;BME280;37534;39.772;2.718;2023-05-22T04:37:22;100806.66;;;16.22;100.00
51460;BME280;37534;39.772;2.718;2023-05-22T04:39:48;100808.84;;;16.31;100.00
51460;BME280;37534;39.772;2.718;2023-05-22T04:42:17;100813.44;;;16.43;100.00
51460;BME280;37534;39.772;2.718;2023-05-22T04:44:44;100814.28;;;16.44;100.00
51460;BME280;37534;39.772;2.718;2023-05-22T04:47:10;100823.56;;;16.49;100.00
51460;BME280;37534;39.772;2.718;2023-05-22T04:49:39;100837.03;;;16.40;100.00
51460;BME280;37534;39.772;2.718;2023-05-22T04:52:05;100838.25;;;16.33;100.00
51460;BME280;37534;39.772;2.718;2023-05-22T04:54:31;100836.69;;;16.29;100.00
51460;BME280;37534;39.772;2.718;2023-05-22T04:56:57;100846.06;;;16.33;100.00
51460;BME280;37534;39.772;2.718;2023-05-22T04:59:23;100838.38;;;16.30;100.00
51460;BME280;37534;39.772;2.718;2023-05-22T05:01:51;100833.50;;;16.41;100.00
51460;BME280;37534;39.772;2.718;2023-05-22T05:04:17;100844.59;;;16.45;100.00
51460;BME280;37534;39.772;2.718;2023-05-22T05:06:43;100832.13;;;16.51;100.00
51460;BME280;37534;39.772;2.718;2023-05-22T05:09:09;100835.97;;;16.62;100.00
51460;BME280;37534;39.772;2.718;2023-05-22T05:11:35;100846.88;;;16.70;100.00
51460;BME280;37534;39.772;2.718;2023-05-22T05:14:00;100839.50;;;16.78;100.00
51460;BME280;37534;39.772;2.718;2023-05-22T05:16:26;100846.13;;;16.85;100.00
51460;BME280;37534;39.772;2.718;2023-05-22T05:18:52;100841.59;;;16.89;100.00
51460;BME280;37534;39.772;2.718;2023-05-22T05:21:18;100853.09;;;17.02;100.00
51460;BME280;37534;39.772;2.718;2023-05-22T05:23:45;100852.94;;;17.05;100.00
51460;BME280;37534;39.772;2.718;2023-05-22T05:26:11;100858.66;;;17.12;100.00
51460;BME280;37534;39.772;2.718;2023-05-22T05:28:37;100866.28;;;17.17;100.00
51460;BME280;37534;39.772;2.718;2023-05-22T05:31:02;100861.75;;;17.20;100.00
51460;BME280;37534;39.772;2.718;2023-05-22T05:33:28;100851.31;;;17.20;100.00
51460;BME280;37534;39.772;2.718;2023-05-22T05:35:53;100859.56;;;17.28;100.00
51460;BME280;37534;39.772;2.718;2023-05-22T05:38:19;100857.09;;;17.43;100.00
51460;BME280;37534;39.772;2.718;2023-05-22T05:40:45;100858.47;;;17.50;100.00
51460;BME280;37534;39.772;2.718;2023-05-22T05:43:11;100859.75;;;17.59;100.00
51460;BME280;37534;39.772;2.718;2023-05-22T05:45:40;100840.22;;;17.50;100.00
51460;BME280;37534;39.772;2.718;2023-05-22T05:48:05;100849.56;;;17.54;100.00
51460;BME280;37534;39.772;2.718;2023-05-22T05:50:31;100850.31;;;17.56;100.00
51460;BME280;37534;39.772;2.718;2023-05-22T05:52:56;100839.94;;;17.55;100.00
51460;BME280;37534;39.772;2.718;2023-05-22T05:55:22;100852.41;;;17.65;100.00
51460;BME280;37534;39.772;2.718;2023-05-22T05:57:48;100848.47;;;17.74;100.00
51460;BME280;37534;39.772;2.718;2023-05-22T06:00:13;100853.91;;;17.87;100.00
51460;BME280;37534;39.772;2.718;2023-05-22T06:02:39;100848.38;;;17.93;100.00
51460;BME280;37534;39.772;2.718;2023-05-22T06:05:06;100858.88;;;18.08;100.00
51460;BME280;37534;39.772;2.718;2023-05-22T06:07:31;100856.94;;;18.11;100.00
51460;BME280;37534;39.772;2.718;2023-05-22T06:09:57;100851.81;;;18.10;100.00
51460;BME280;37534;39.772;2.718;2023-05-22T06:12:23;100851.28;;;18.19;100.00
51460;BME280;37534;39.772;2.718;2023-05-22T06:14:49;100856.69;;;18.32;100.00
51460;BME280;37534;39.772;2.718;2023-05-22T06:17:15;100850.00;;;18.42;100.00
51460;BME280;37534;39.772;2.718;2023-05-22T06:19:41;100857.41;;;18.50;100.00
51460;BME280;37534;39.772;2.718;2023-05-22T06:22:06;100859.50;;;18.59;100.00
51460;BME280;37534;39.772;2.718;2023-05-22T06:24:32;100865.31;;;18.64;100.00
51460;BME280;37534;39.772;2.718;2023-05-22T06:26:58;100869.59;;;18.65;100.00
51460;BME280;37534;39.772;2.718;2023-05-22T06:29:24;100865.91;;;18.69;100.00
51460;BME280;37534;39.772;2.718;2023-05-22T06:31:49;100869.09;;;18.74;100.00
51460;BME280;37534;39.772;2.718;2023-05-22T06:34:15;100866.03;;;18.82;100.00
51460;BME280;37534;39.772;2.718;2023-05-22T06:36:41;100868.56;;;18.84;100.00
51460;BME280;37534;39.772;2.718;2023-05-22T06:39:06;100874.19;;;18.92;100.00
51460;BME280;37534;39.772;2.718;2023-05-22T06:41:33;100869.19;;;19.03;100.00
51460;BME280;37534;39.772;2.718;2023-05-22T06:44:00;100872.53;;;19.05;100.00
51460;BME280;37534;39.772;2.718;2023-05-22T06:46:26;100867.97;;;19.09;100.00
51460;BME280;37534;39.772;2.718;2023-05-22T06:48:52;100872.38;;;19.08;100.00
51460;BME280;37534;39.772;2.718;2023-05-22T06:51:19;100872.47;;;19.07;100.00
51460;BME280;37534;39.772;2.718;2023-05-22T06:53:45;100872.16;;;19.11;100.00
51460;BME280;37534;39.772;2.718;2023-05-22T06:56:10;100872.75;;;19.16;100.00
51460;BME280;37534;39.772;2.718;2023-05-22T06:58:36;100881.25;;;19.20;100.00
51460;BME280;37534;39.772;2.718;2023-05-22T07:01:02;100871.66;;;19.21;100.00
51460;BME280;37534;39.772;2.718;2023-05-22T07:03:27;100876.41;;;19.28;100.00
51460;BME280;37534;39.772;2.718;2023-05-22T07:05:54;100881.00;;;19.39;100.00
51460;BME280;37534;39.772;2.718;2023-05-22T07:08:20;100885.84;;;19.45;100.00
51460;BME280;37534;39.772;2.718;2023-05-22T07:10:46;100882.03;;;19.51;100.00
51460;BME280;37534;39.772;2.718;2023-05-22T07:13:12;100882.47;;;19.57;100.00
51460;BME280;37534;39.772;2.718;2023-05-22T07:15:37;100884.91;;;19.61;100.00
51460;BME280;37534;39.772;2.718;2023-05-22T07:18:03;100879.50;;;19.64;100.00
51460;BME280;37534;39.772;2.718;2023-05-22T07:20:29;100896.38;;;19.74;100.00
51460;BME280;37534;39.772;2.718;2023-05-22T07:22:54;100888.03;;;19.82;100.00
51460;BME280;37534;39.772;2.718;2023-05-22T07:25:20;100886.53;;;19.92;100.00
51460;BME280;37534;39.772;2.718;2023-05-22T07:27:45;100898.19;;;20.01;100.00
51460;BME280;37534;39.772;2.718;2023-05-22T07:30:11;100892.19;;;20.13;100.00
51460;BME280;37534;39.772;2.718;2023-05-22T07:32:37;100883.66;;;20.24;100.00
51460;BME280;37534;39.772;2.718;2023-05-22T07:35:02;100885.47;;;20.36;100.00
51460;BME280;37534;39.772;2.718;2023-05-22T07:37:28;100878.41;;;20.51;100.00
51460;BME280;37534;39.772;2.718;2023-05-22T07:39:55;100875.59;;;20.54;100.00
51460;BME280;37534;39.772;2.718;2023-05-22T07:42:21;100871.47;;;20.50;100.00
51460;BME280;37534;39.772;2.718;2023-05-22T07:44:47;100877.66;;;20.49;100.00
51460;BME280;37534;39.772;2.718;2023-05-22T07:47:13;100881.75;;;20.26;100.00
51460;BME280;37534;39.772;2.718;2023-05-22T07:49:39;100878.00;;;20.30;100.00
51460;BME280;37534;39.772;2.718;2023-05-22T07:52:04;100875.97;;;20.48;100.00
51460;BME280;37534;39.772;2.718;2023-05-22T07:54:30;100871.66;;;20.61;100.00
51460;BME280;37534;39.772;2.718;2023-05-22T07:56:56;100870.44;;;20.80;100.00
51460;BME280;37534;39.772;2.718;2023-05-22T07:59:21;100861.53;;;20.95;100.00
51460;BME280;37534;39.772;2.718;2023-05-22T08:01:48;100863.53;;;21.04;100.00
51460;BME280;37534;39.772;2.718;2023-05-22T08:04:14;100868.59;;;21.07;100.00
51460;BME280;37534;39.772;2.718;2023-05-22T08:06:40;100876.16;;;21.25;100.00
51460;BME280;37534;39.772;2.718;2023-05-22T08:09:07;100871.31;;;21.19;100.00
51460;BME280;37534;39.772;2.718;2023-05-22T08:11:33;100874.25;;;21.27;100.00
51460;BME280;37534;39.772;2.718;2023-05-22T08:14:01;100865.19;;;21.44;100.00
51460;BME280;37534;39.772;2.718;2023-05-22T08:16:27;100871.50;;;21.67;100.00
51460;BME280;37534;39.772;2.718;2023-05-22T08:18:52;100877.78;;;21.77;100.00
51460;BME280;37534;39.772;2.718;2023-05-22T08:21:18;100869.50;;;21.83;100.00
51460;BME280;37534;39.772;2.718;2023-05-22T08:23:43;100868.50;;;21.97;100.00
51460;BME280;37534;39.772;2.718;2023-05-22T08:26:09;100872.25;;;22.06;100.00
51460;BME280;37534;39.772;2.718;2023-05-22T08:28:35;100871.09;;;22.10;100.00
51460;BME280;37534;39.772;2.718;2023-05-22T08:31:01;100872.19;;;22.32;99.54
51460;BME280;37534;39.772;2.718;2023-05-22T08:33:27;100884.34;;;22.46;99.40
51460;BME280;37534;39.772;2.718;2023-05-22T08:35:52;100879.22;;;22.31;96.61
51460;BME280;37534;39.772;2.718;2023-05-22T08:38:18;100869.88;;;22.03;98.89
51460;BME280;37534;39.772;2.718;2023-05-22T08:40:47;100876.97;;;22.14;97.58
51460;BME280;37534;39.772;2.718;2023-05-22T08:43:15;100874.56;;;22.11;97.86
51460;BME280;37534;39.772;2.718;2023-05-22T08:45:41;100878.69;;;22.02;99.92
51460;BME280;37534;39.772;2.718;2023-05-22T08:48:11;100882.38;;;21.99;100.00
51460;BME280;37534;39.772;2.718;2023-05-22T08:50:41;100882.63;;;21.83;100.00
51460;BME280;37534;39.772;2.718;2023-05-22T08:53:11;100883.50;;;21.71;100.00
51460;BME280;37534;39.772;2.718;2023-05-22T08:55:39;100873.19;;;21.68;100.00
51460;BME280;37534;39.772;2.718;2023-05-22T08:58:05;100869.19;;;21.75;100.00
51460;BME280;37534;39.772;2.718;2023-05-22T09:00:32;100866.13;;;21.81;100.00
51460;BME280;37534;39.772;2.718;2023-05-22T09:02:58;100852.56;;;21.88;100.00
51460;BME280;37534;39.772;2.718;2023-05-22T09:05:23;100865.34;;;22.05;98.30
51460;BME280;37534;39.772;2.718;2023-05-22T09:07:53;100860.44;;;22.25;94.29
51460;BME280;37534;39.772;2.718;2023-05-22T09:10:19;100871.38;;;22.18;95.88
51460;BME280;37534;39.772;2.718;2023-05-22T09:13:06;100866.56;;;22.12;95.17
51460;BME280;37534;39.772;2.718;2023-05-22T09:15:34;100862.94;;;22.26;93.38
51460;BME280;37534;39.772;2.718;2023-05-22T09:18:04;100864.38;;;22.54;94.29
51460;BME280;37534;39.772;2.718;2023-05-22T09:20:39;100854.34;;;22.95;93.00
51460;BME280;37534;39.772;2.718;2023-05-22T09:23:14;100845.81;;;23.27;91.01
51460;BME280;37534;39.772;2.718;2023-05-22T09:25:43;100858.75;;;23.64;87.50
51460;BME280;37534;39.772;2.718;2023-05-22T09:28:12;100859.31;;;23.79;86.64
51460;BME280;37534;39.772;2.718;2023-05-22T09:30:38;100864.13;;;23.85;84.13
51460;BME280;37534;39.772;2.718;2023-05-22T09:33:04;100862.19;;;23.64;85.64
51460;BME280;37534;39.772;2.718;2023-05-22T09:35:34;100864.13;;;23.51;86.67
51460;BME280;37534;39.772;2.718;2023-05-22T09:38:00;100868.56;;;23.62;87.43
51460;BME280;37534;39.772;2.718;2023-05-22T09:40:26;100854.56;;;23.50;89.39
51460;BME280;37534;39.772;2.718;2023-05-22T09:42:53;100860.06;;;23.24;91.68
51460;BME280;37534;39.772;2.718;2023-05-22T09:45:20;100859.44;;;23.09;92.20
51460;BME280;37534;39.772;2.718;2023-05-22T09:47:49;100860.00;;;23.02;93.18
51460;BME280;37534;39.772;2.718;2023-05-22T09:50:15;100866.50;;;23.09;92.44
51460;BME280;37534;39.772;2.718;2023-05-22T09:52:43;100862.66;;;23.13;93.33
51460;BME280;37534;39.772;2.718;2023-05-22T09:55:09;100870.53;;;23.02;93.00
51460;BME280;37534;39.772;2.718;2023-05-22T09:57:44;100873.63;;;22.95;93.76
51460;BME280;37534;39.772;2.718;2023-05-22T10:00:11;100866.06;;;22.80;95.14
51460;BME280;37534;39.772;2.718;2023-05-22T10:02:43;100870.53;;;22.66;96.54
51460;BME280;37534;39.772;2.718;2023-05-22T10:05:10;100858.81;;;22.59;97.00
51460;BME280;37534;39.772;2.718;2023-05-22T10:07:45;100860.78;;;22.80;95.63
51460;BME280;37534;39.772;2.718;2023-05-22T10:10:12;100864.63;;;22.51;97.42
51460;BME280;37534;39.772;2.718;2023-05-22T10:12:50;100867.19;;;22.40;97.98
51460;BME280;37534;39.772;2.718;2023-05-22T10:15:17;100866.47;;;22.38;97.82
51460;BME280;37534;39.772;2.718;2023-05-22T10:17:43;100865.78;;;22.47;98.91
51460;BME280;37534;39.772;2.718;2023-05-22T10:20:10;100861.72;;;22.67;97.66
51460;BME280;37534;39.772;2.718;2023-05-22T10:22:37;100856.38;;;22.91;94.58
51460;BME280;37534;39.772;2.718;2023-05-22T10:25:03;100858.25;;;23.13;92.50
51460;BME280;37534;39.772;2.718;2023-05-22T10:27:29;100856.94;;;23.08;92.11
51460;BME280;37534;39.772;2.718;2023-05-22T10:35:50;100860.31;;;23.44;86.80
51460;BME280;37534;39.772;2.718;2023-05-22T10:41:04;100861.00;;;23.57;84.52
51460;BME280;37534;39.772;2.718;2023-05-22T10:43:31;100856.22;;;23.73;85.12
51460;BME280;37534;39.772;2.718;2023-05-22T10:46:04;100866.00;;;24.05;84.61
51460;BME280;37534;39.772;2.718;2023-05-22T10:48:42;100859.41;;;24.11;80.57
51460;BME280;37534;39.772;2.718;2023-05-22T10:51:11;100857.25;;;24.05;81.16
51460;BME280;37534;39.772;2.718;2023-05-22T10:53:37;100850.97;;;23.85;82.64
51460;BME280;37534;39.772;2.718;2023-05-22T10:56:12;100857.72;;;24.10;81.85
51460;BME280;37534;39.772;2.718;2023-05-22T10:58:38;100855.91;;;24.54;78.97
51460;BME280;37534;39.772;2.718;2023-05-22T11:01:14;100845.84;;;24.80;77.81
51460;BME280;37534;39.772;2.718;2023-05-22T11:04:26;100830.16;;;25.10;76.75
51460;BME280;37534;39.772;2.718;2023-05-22T11:07:02;100837.53;;;25.37;72.73
51460;BME280;37534;39.772;2.718;2023-05-22T11:09:39;100848.16;;;25.56;72.12
51460;BME280;37534;39.772;2.718;2023-05-22T11:14:53;100841.63;;;25.51;69.31
51460;BME280;37534;39.772;2.718;2023-05-22T11:17:28;100849.50;;;25.41;69.35
51460;BME280;37534;39.772;2.718;2023-05-22T11:22:54;100849.41;;;25.21;70.02
51460;BME280;37534;39.772;2.718;2023-05-22T11:25:20;100845.72;;;24.82;69.83
51460;BME280;37534;39.772;2.718;2023-05-22T11:27:47;100842.44;;;25.20;69.90
51460;BME280;37534;39.772;2.718;2023-05-22T11:30:14;100838.41;;;25.47;71.71
51460;BME280;37534;39.772;2.718;2023-05-22T11:32:42;100828.19;;;25.64;70.50
51460;BME280;37534;39.772;2.718;2023-05-22T11:35:14;100823.53;;;25.46;69.57
51460;BME280;37534;39.772;2.718;2023-05-22T11:37:41;100819.28;;;25.03;71.21
51460;BME280;37534;39.772;2.718;2023-05-22T11:40:07;100817.22;;;25.07;71.92
51460;BME280;37534;39.772;2.718;2023-05-22T11:42:34;100808.13;;;24.90;70.16
51460;BME280;37534;39.772;2.718;2023-05-22T11:45:00;100810.50;;;24.93;71.45
51460;BME280;37534;39.772;2.718;2023-05-22T11:47:26;100812.69;;;24.66;72.43
51460;BME280;37534;39.772;2.718;2023-05-22T11:49:53;100803.38;;;24.30;73.58
51460;BME280;37534;39.772;2.718;2023-05-22T11:52:20;100812.97;;;23.99;73.40
51460;BME280;37534;39.772;2.718;2023-05-22T11:54:46;100808.13;;;23.38;76.71
51460;BME280;37534;39.772;2.718;2023-05-22T11:57:12;100809.81;;;23.39;78.15
51460;BME280;37534;39.772;2.718;2023-05-22T11:59:39;100807.06;;;23.40;77.64
51460;BME280;37534;39.772;2.718;2023-05-22T12:02:06;100794.03;;;23.27;77.95
51460;BME280;37534;39.772;2.718;2023-05-22T12:04:32;100809.81;;;23.16;79.68
51460;BME280;37534;39.772;2.718;2023-05-22T12:06:58;100809.56;;;23.08;79.75
51460;BME280;37534;39.772;2.718;2023-05-22T12:09:26;100811.94;;;23.11;79.22
51460;BME280;37534;39.772;2.718;2023-05-22T12:11:54;100812.91;;;23.21;79.35
51460;BME280;37534;39.772;2.718;2023-05-22T12:14:25;100819.59;;;23.25;79.70
51460;BME280;37534;39.772;2.718;2023-05-22T12:16:51;100817.34;;;23.32;78.49
51460;BME280;37534;39.772;2.718;2023-05-22T12:19:17;100824.53;;;23.30;78.05
51460;BME280;37534;39.772;2.718;2023-05-22T12:21:43;100813.38;;;23.38;77.54
51460;BME280;37534;39.772;2.718;2023-05-22T12:24:09;100823.66;;;23.52;76.98
51460;BME280;37534;39.772;2.718;2023-05-22T12:26:35;100820.94;;;23.42;78.10
51460;BME280;37534;39.772;2.718;2023-05-22T12:29:02;100821.63;;;23.56;79.99
51460;BME280;37534;39.772;2.718;2023-05-22T12:31:33;100816.97;;;23.14;84.88
51460;BME280;37534;39.772;2.718;2023-05-22T12:34:02;100818.13;;;22.98;84.38
51460;BME280;37534;39.772;2.718;2023-05-22T12:36:39;100818.31;;;22.73;86.66
51460;BME280;37534;39.772;2.718;2023-05-22T12:39:08;100820.06;;;22.61;87.65
51460;BME280;37534;39.772;2.718;2023-05-22T12:41:38;100808.63;;;22.62;87.88
51460;BME280;37534;39.772;2.718;2023-05-22T12:44:04;100810.22;;;22.76;86.01
51460;BME280;37534;39.772;2.718;2023-05-22T12:46:30;100811.25;;;22.62;86.14
51460;BME280;37534;39.772;2.718;2023-05-22T12:48:57;100806.28;;;22.82;86.20
51460;BME280;37534;39.772;2.718;2023-05-22T12:51:25;100800.91;;;22.83;87.02
51460;BME280;37534;39.772;2.718;2023-05-22T12:54:00;100809.06;;;23.03;82.72
51460;BME280;37534;39.772;2.718;2023-05-22T12:56:27;100793.88;;;23.29;80.23
51460;BME280;37534;39.772;2.718;2023-05-22T12:58:53;100808.38;;;23.34;79.95
51460;BME280;37534;39.772;2.718;2023-05-22T13:01:19;100796.53;;;23.40;80.82
51460;BME280;37534;39.772;2.718;2023-05-22T13:03:46;100789.97;;;23.34;79.18
51460;BME280;37534;39.772;2.718;2023-05-22T13:06:11;100801.94;;;23.27;81.10
51460;BME280;37534;39.772;2.718;2023-05-22T13:08:37;100790.00;;;22.88;83.34
51460;BME280;37534;39.772;2.718;2023-05-22T13:11:03;100801.13;;;22.80;84.90
51460;BME280;37534;39.772;2.718;2023-05-22T13:13:28;100781.50;;;22.73;85.59